createdAt,value
2022-11-08T00:04:57.626Z,14.09
2022-11-08T00:10:18.183Z,14.09
2022-11-08T00:15:19.968Z,14.10
2022-11-08T00:20:21.736Z,14.11
2022-11-08T00:25:23.532Z,14.12
2022-11-08T00:30:25.308Z,14.18
2022-11-08T00:35:27.085Z,14.18
2022-11-08T00:40:28.863Z,14.15
2022-11-08T00:45:30.666Z,14.15
2022-11-08T00:50:32.514Z,14.11
2022-11-08T00:55:34.295Z,14.13
2022-11-08T01:00:36.208Z,14.10
2022-11-08T01:05:38.401Z,14.14
2022-11-08T01:10:45.659Z,14.17
2022-11-08T01:15:48.425Z,14.15
2022-11-08T01:20:50.896Z,14.16
2022-11-08T01:25:52.706Z,14.14
2022-11-08T01:30:54.484Z,14.14
2022-11-08T01:35:56.343Z,14.13
2022-11-08T01:40:58.132Z,14.08
2022-11-08T01:46:18.376Z,14.08
2022-11-08T01:51:26.082Z,14.07
2022-11-08T01:56:28.036Z,14.06
2022-11-08T02:01:30.127Z,14.03
2022-11-08T02:06:35.888Z,14.06
2022-11-08T02:11:39.512Z,14.05
2022-11-08T02:16:41.302Z,14.03
2022-11-08T02:21:50.805Z,14.05
2022-11-08T02:26:55.282Z,14.05
2022-11-08T02:31:58.768Z,14.08
2022-11-08T02:37:03.627Z,14.11
2022-11-08T02:42:05.576Z,14.14
2022-11-08T02:47:07.387Z,14.11
2022-11-08T02:52:09.502Z,14.11
2022-11-08T02:57:11.332Z,14.07
2022-11-08T03:02:13.232Z,14.03
2022-11-08T03:07:15.220Z,13.99
2022-11-08T03:12:17.044Z,13.94
2022-11-08T03:17:18.837Z,13.94
2022-11-08T03:22:20.638Z,13.95
2022-11-08T03:27:23.382Z,13.95
2022-11-08T03:32:25.129Z,13.88
2022-11-08T03:37:26.913Z,13.86
2022-11-08T03:42:28.689Z,13.82
2022-11-08T03:47:30.459Z,13.81
2022-11-08T03:52:32.199Z,13.78
2022-11-08T03:57:34.173Z,13.71
2022-11-08T04:02:35.972Z,13.62
2022-11-08T04:07:38.338Z,13.66
2022-11-08T04:12:59.934Z,13.70
2022-11-08T04:18:21.016Z,13.73
2022-11-08T04:23:23.097Z,13.74
2022-11-08T04:28:26.978Z,13.74
2022-11-08T04:33:28.983Z,13.71
2022-11-08T04:38:31.926Z,13.77
2022-11-08T04:43:33.913Z,13.81
2022-11-08T04:48:36.350Z,13.81
2022-11-08T04:53:38.135Z,13.81
2022-11-08T04:58:45.435Z,13.80
2022-11-08T05:03:49.283Z,13.83
2022-11-08T05:08:51.512Z,13.81
2022-11-08T05:13:53.840Z,13.82
2022-11-08T05:18:56.186Z,13.79
2022-11-08T05:23:59.094Z,13.82
2022-11-08T05:29:00.898Z,13.75
2022-11-08T05:34:02.740Z,13.72
2022-11-08T05:39:04.586Z,13.70
2022-11-08T05:44:06.406Z,13.66
2022-11-08T05:49:08.201Z,13.62
2022-11-08T05:54:10.282Z,13.57
2022-11-08T05:59:12.055Z,13.54
2022-11-08T06:04:13.921Z,13.53
2022-11-08T06:09:15.699Z,13.48
2022-11-08T06:14:17.463Z,13.51
2022-11-08T06:19:19.262Z,13.56
2022-11-08T06:24:21.065Z,13.60
2022-11-08T06:29:22.870Z,13.70
2022-11-08T06:34:25.227Z,13.71
2022-11-08T06:39:27.130Z,13.68
2022-11-08T06:44:28.955Z,13.76
2022-11-08T06:49:30.741Z,13.89
2022-11-08T06:54:32.547Z,13.97
2022-11-08T06:59:34.334Z,14.10
2022-11-08T07:04:36.138Z,14.63
2022-11-08T07:09:37.934Z,14.97
2022-11-08T07:14:39.716Z,15.03
2022-11-08T07:19:41.617Z,15.12
2022-11-08T07:24:43.408Z,15.28
2022-11-08T07:29:45.219Z,15.43
2022-11-08T07:34:47.118Z,15.58
2022-11-08T07:39:48.910Z,15.80
2022-11-08T07:44:50.907Z,16.03
2022-11-08T07:49:52.701Z,16.30
2022-11-08T07:54:54.721Z,16.56
2022-11-08T07:59:56.526Z,16.78
2022-11-08T08:04:58.332Z,16.96
2022-11-08T08:10:00.242Z,17.16
2022-11-08T08:15:02.172Z,17.38
2022-11-08T08:20:04.745Z,17.60
2022-11-08T08:25:07.189Z,17.79
2022-11-08T08:30:09.313Z,17.98
2022-11-08T08:35:11.623Z,18.15
2022-11-08T08:40:13.509Z,18.26
2022-11-08T08:45:15.429Z,18.34
2022-11-08T08:50:17.272Z,18.48
2022-11-08T08:55:19.517Z,18.67
2022-11-08T09:05:47.018Z,18.97
2022-11-08T09:10:57.305Z,19.16
2022-11-08T09:16:01.884Z,19.27
2022-11-08T09:21:04.473Z,19.38
2022-11-08T09:26:06.622Z,19.49
2022-11-08T09:31:10.913Z,19.57
2022-11-08T09:36:14.141Z,19.63
2022-11-08T09:41:41.589Z,19.67
2022-11-08T09:46:53.678Z,19.75
2022-11-08T09:51:55.692Z,19.94
2022-11-08T09:56:58.373Z,20.00
2022-11-08T10:02:00.327Z,19.82
2022-11-08T10:07:08.019Z,19.65
2022-11-08T10:12:28.522Z,19.54
2022-11-08T10:17:42.198Z,19.46
2022-11-08T10:23:05.501Z,19.43
2022-11-08T10:28:08.301Z,19.43
2022-11-08T10:33:18.419Z,19.41
2022-11-08T10:38:24.989Z,19.43
2022-11-08T10:43:49.930Z,19.49
2022-11-08T10:48:51.737Z,19.59
2022-11-08T10:53:53.595Z,19.52
2022-11-08T10:58:55.451Z,19.58
2022-11-08T11:03:57.291Z,19.54
2022-11-08T11:09:03.814Z,19.45
2022-11-08T11:14:22.249Z,19.60
2022-11-08T11:19:26.274Z,19.66
2022-11-08T11:24:28.498Z,19.79
2022-11-08T11:29:32.714Z,19.82
2022-11-08T11:34:49.205Z,19.97
2022-11-08T11:40:12.813Z,20.01
2022-11-08T11:45:17.953Z,19.72
2022-11-08T11:50:28.657Z,19.52
2022-11-08T11:55:49.339Z,19.57
2022-11-08T12:01:14.833Z,19.50
2022-11-08T12:06:21.580Z,19.45
2022-11-08T12:11:36.462Z,19.66
2022-11-08T12:17:07.481Z,19.83
2022-11-08T12:22:12.090Z,19.79
2022-11-08T12:27:31.188Z,19.72
2022-11-08T12:32:45.568Z,19.60
2022-11-08T12:38:05.829Z,19.54
2022-11-08T12:43:23.135Z,19.75
2022-11-08T12:48:24.896Z,20.59
2022-11-08T12:53:51.518Z,20.93
2022-11-08T12:58:55.146Z,21.04
2022-11-08T13:04:21.648Z,22.28
2022-11-08T13:09:37.416Z,23.62
2022-11-08T13:14:41.423Z,24.47
2022-11-08T13:19:49.788Z,24.92
2022-11-08T13:24:51.682Z,23.23
2022-11-08T13:29:56.844Z,21.68
2022-11-08T13:35:25.616Z,22.00
2022-11-08T13:40:55.692Z,23.54
2022-11-08T13:46:31.878Z,24.95
2022-11-08T13:51:36.748Z,25.48
2022-11-08T13:56:45.937Z,25.00
2022-11-08T14:01:47.689Z,23.53
2022-11-08T14:06:55.185Z,21.59
2022-11-08T14:12:12.322Z,20.27
2022-11-08T14:17:26.662Z,19.65
2022-11-08T14:22:30.374Z,19.63
2022-11-08T14:27:36.825Z,19.57
2022-11-08T14:32:40.780Z,19.45
2022-11-08T14:37:44.042Z,19.22
2022-11-08T14:42:46.006Z,19.07
2022-11-08T14:48:00.820Z,19.04
2022-11-08T14:53:45.008Z,18.87
2022-11-08T14:58:48.444Z,18.65
2022-11-08T15:03:55.789Z,18.37
2022-11-08T15:08:58.176Z,18.16
2022-11-08T15:14:17.062Z,17.87
2022-11-08T15:19:30.285Z,17.67
2022-11-08T15:24:39.981Z,17.49
2022-11-08T15:30:07.152Z,17.35
2022-11-08T15:35:23.903Z,17.36
2022-11-08T15:40:32.043Z,17.11
2022-11-08T15:45:35.749Z,17.02
2022-11-08T15:50:37.693Z,16.80
2022-11-08T15:55:49.047Z,16.66
2022-11-08T16:00:51.158Z,16.69
2022-11-08T16:05:53.312Z,16.72
2022-11-08T16:10:59.818Z,16.73
2022-11-08T16:16:04.054Z,16.66
2022-11-08T16:21:06.624Z,16.62
2022-11-08T16:26:15.374Z,16.55
2022-11-08T16:31:20.822Z,16.45
2022-11-08T16:36:25.716Z,16.35
2022-11-08T16:41:27.755Z,16.22
2022-11-08T16:46:29.673Z,16.17
2022-11-08T16:51:31.987Z,16.09
2022-11-08T16:56:33.898Z,16.00
2022-11-08T17:01:36.176Z,15.88
2022-11-08T17:06:38.191Z,15.84
2022-11-08T17:11:40.911Z,15.78
2022-11-08T17:16:42.816Z,15.73
2022-11-08T17:21:45.892Z,15.70
2022-11-08T17:26:48.198Z,15.64
2022-11-08T17:31:50.478Z,15.49
2022-11-08T17:36:53.076Z,15.38
2022-11-08T17:41:54.973Z,15.29
2022-11-08T17:46:56.813Z,15.23
2022-11-08T17:51:58.713Z,15.27
2022-11-08T17:57:00.676Z,15.43
2022-11-08T18:02:03.380Z,15.51
2022-11-08T18:07:05.827Z,15.57
2022-11-08T18:12:07.850Z,15.67
2022-11-08T18:17:09.853Z,15.73
2022-11-08T18:22:11.703Z,15.74
2022-11-08T18:27:13.645Z,15.70
2022-11-08T18:32:15.667Z,15.72
2022-11-08T18:37:17.584Z,15.77
2022-11-08T18:42:19.425Z,15.83
2022-11-08T18:47:21.310Z,15.85
2022-11-08T18:52:23.160Z,15.96
2022-11-08T18:57:25.114Z,16.05
2022-11-08T19:02:27.020Z,16.16
2022-11-08T19:07:29.792Z,16.21
2022-11-08T19:12:31.777Z,16.19
2022-11-08T19:17:35.401Z,16.18
2022-11-08T19:22:37.313Z,16.15
2022-11-08T19:27:39.241Z,16.13
2022-11-08T19:32:41.185Z,16.16
2022-11-08T19:37:43.172Z,16.21
2022-11-08T19:42:45.077Z,16.27
2022-11-08T19:47:50.563Z,16.26
2022-11-08T19:52:52.581Z,16.26
2022-11-08T19:57:54.564Z,16.29
2022-11-08T20:02:56.485Z,16.33
2022-11-08T20:07:58.347Z,16.38
2022-11-08T20:13:00.253Z,16.40
2022-11-08T20:18:02.023Z,16.41
2022-11-08T20:23:04.641Z,16.37
2022-11-08T20:28:07.079Z,16.36
2022-11-08T20:33:08.906Z,16.30
2022-11-08T20:38:10.704Z,16.27
2022-11-08T20:43:12.541Z,16.22
2022-11-08T20:48:14.495Z,16.19
2022-11-08T20:53:16.316Z,16.16
2022-11-08T20:58:18.402Z,16.09
2022-11-08T21:03:21.920Z,15.97
2022-11-08T21:13:47.244Z,15.77
2022-11-08T21:18:49.159Z,15.72
2022-11-08T21:23:51.605Z,15.64
2022-11-08T21:28:54.449Z,15.62
2022-11-08T21:33:56.317Z,15.64
2022-11-08T21:38:58.123Z,15.66
2022-11-08T21:44:00.118Z,15.67
2022-11-08T21:49:02.406Z,15.66
2022-11-08T21:54:05.240Z,15.67
2022-11-08T21:59:07.090Z,15.65
2022-11-08T22:04:08.879Z,15.66
2022-11-08T22:09:10.689Z,15.66
2022-11-08T22:14:12.673Z,15.65
2022-11-08T22:19:15.554Z,15.61
2022-11-08T22:24:22.783Z,15.60
2022-11-08T22:29:25.139Z,15.60
2022-11-08T22:34:27.426Z,15.58
2022-11-08T22:39:29.494Z,15.54
2022-11-08T22:44:31.307Z,15.53
2022-11-08T22:49:33.120Z,15.48
2022-11-08T22:54:35.187Z,15.44
2022-11-08T22:59:36.990Z,15.44
2022-11-08T23:04:38.820Z,15.44
2022-11-08T23:09:40.669Z,15.40
2022-11-08T23:15:00.934Z,15.36
2022-11-08T23:20:21.515Z,15.33
2022-11-08T23:25:23.304Z,15.24
2022-11-08T23:30:43.974Z,15.18
2022-11-08T23:36:05.736Z,15.13
2022-11-08T23:41:26.534Z,14.99
2022-11-08T23:46:28.231Z,14.95
2022-11-08T23:51:30.420Z,14.94
2022-11-08T23:56:32.285Z,14.92
